sensor_id;sensor_type;location;lat;lon;timestamp;P1;durP1;ratioP1;P2;durP2;ratioP2
72569;SDS011;60594;50.204;8.844;2023-05-14T00:01:27;7.70;;;4.47;;
72569;SDS011;60594;50.204;8.844;2023-05-14T00:03:54;6.75;;;4.80;;
72569;SDS011;60594;50.204;8.844;2023-05-14T00:06:24;8.90;;;5.63;;
72569;SDS011;60594;50.204;8.844;2023-05-14T00:08:50;9.02;;;4.95;;
72569;SDS011;60594;50.204;8.844;2023-05-14T00:11:20;8.77;;;5.20;;
72569;SDS011;60594;50.204;8.844;2023-05-14T00:13:47;8.88;;;6.10;;
72569;SDS011;60594;50.204;8.844;2023-05-14T00:16:14;10.52;;;5.35;;
72569;SDS011;60594;50.204;8.844;2023-05-14T00:18:41;9.13;;;5.32;;
72569;SDS011;60594;50.204;8.844;2023-05-14T00:21:08;9.20;;;5.70;;
72569;SDS011;60594;50.204;8.844;2023-05-14T00:23:36;10.57;;;6.25;;
72569;SDS011;60594;50.204;8.844;2023-05-14T00:26:02;8.10;;;5.45;;
72569;SDS011;60594;50.204;8.844;2023-05-14T00:28:30;8.85;;;5.40;;
72569;SDS011;60594;50.204;8.844;2023-05-14T00:30:57;10.52;;;5.60;;
72569;SDS011;60594;50.204;8.844;2023-05-14T00:33:26;11.02;;;5.53;;
72569;SDS011;60594;50.204;8.844;2023-05-14T00:35:53;8.05;;;5.47;;
72569;SDS011;60594;50.204;8.844;2023-05-14T00:38:19;8.38;;;6.15;;
72569;SDS011;60594;50.204;8.844;2023-05-14T00:40:46;8.73;;;5.60;;
72569;SDS011;60594;50.204;8.844;2023-05-14T00:43:17;9.23;;;5.82;;
72569;SDS011;60594;50.204;8.844;2023-05-14T00:45:49;7.25;;;5.40;;
72569;SDS011;60594;50.204;8.844;2023-05-14T00:48:18;8.55;;;5.72;;
72569;SDS011;60594;50.204;8.844;2023-05-14T00:50:46;8.93;;;5.35;;
72569;SDS011;60594;50.204;8.844;2023-05-14T00:53:17;7.90;;;5.15;;
72569;SDS011;60594;50.204;8.844;2023-05-14T00:55:45;7.80;;;5.00;;
72569;SDS011;60594;50.204;8.844;2023-05-14T00:58:15;8.32;;;5.05;;
72569;SDS011;60594;50.204;8.844;2023-05-14T01:00:44;8.13;;;5.50;;
72569;SDS011;60594;50.204;8.844;2023-05-14T01:03:14;8.90;;;5.07;;
72569;SDS011;60594;50.204;8.844;2023-05-14T01:09:09;8.43;;;5.40;;
72569;SDS011;60594;50.204;8.844;2023-05-14T01:12:07;9.98;;;6.05;;
72569;SDS011;60594;50.204;8.844;2023-05-14T01:17:18;9.15;;;5.72;;
72569;SDS011;60594;50.204;8.844;2023-05-14T01:19:48;8.65;;;5.35;;
72569;SDS011;60594;50.204;8.844;2023-05-14T01:22:18;10.57;;;6.43;;
72569;SDS011;60594;50.204;8.844;2023-05-14T01:24:45;8.90;;;6.00;;
72569;SDS011;60594;50.204;8.844;2023-05-14T01:27:24;8.18;;;5.65;;
72569;SDS011;60594;50.204;8.844;2023-05-14T01:30:16;8.80;;;6.47;;
72569;SDS011;60594;50.204;8.844;2023-05-14T01:33:09;7.90;;;5.30;;
72569;SDS011;60594;50.204;8.844;2023-05-14T01:35:38;9.82;;;5.97;;
72569;SDS011;60594;50.204;8.844;2023-05-14T01:38:06;9.25;;;5.50;;
72569;SDS011;60594;50.204;8.844;2023-05-14T01:40:38;9.93;;;6.03;;
72569;SDS011;60594;50.204;8.844;2023-05-14T01:43:07;9.38;;;5.80;;
72569;SDS011;60594;50.204;8.844;2023-05-14T01:45:39;9.50;;;6.07;;
72569;SDS011;60594;50.204;8.844;2023-05-14T01:48:07;10.00;;;6.90;;
72569;SDS011;60594;50.204;8.844;2023-05-14T01:50:34;10.43;;;5.80;;
72569;SDS011;60594;50.204;8.844;2023-05-14T01:53:00;10.82;;;7.30;;
72569;SDS011;60594;50.204;8.844;2023-05-14T01:55:27;10.15;;;6.50;;
72569;SDS011;60594;50.204;8.844;2023-05-14T01:57:54;11.68;;;6.97;;
72569;SDS011;60594;50.204;8.844;2023-05-14T02:00:24;11.48;;;6.60;;
72569;SDS011;60594;50.204;8.844;2023-05-14T02:02:52;8.90;;;5.72;;
72569;SDS011;60594;50.204;8.844;2023-05-14T02:05:19;9.10;;;5.68;;
72569;SDS011;60594;50.204;8.844;2023-05-14T02:07:46;9.70;;;5.80;;
72569;SDS011;60594;50.204;8.844;2023-05-14T02:10:13;9.80;;;6.85;;
72569;SDS011;60594;50.204;8.844;2023-05-14T02:12:39;8.75;;;6.15;;
72569;SDS011;60594;50.204;8.844;2023-05-14T02:15:06;10.63;;;6.53;;
72569;SDS011;60594;50.204;8.844;2023-05-14T02:17:36;9.88;;;7.15;;
72569;SDS011;60594;50.204;8.844;2023-05-14T02:20:04;11.93;;;7.32;;
72569;SDS011;60594;50.204;8.844;2023-05-14T02:22:42;8.85;;;5.97;;
72569;SDS011;60594;50.204;8.844;2023-05-14T02:27:37;9.10;;;5.90;;
72569;SDS011;60594;50.204;8.844;2023-05-14T02:30:04;10.02;;;6.05;;
72569;SDS011;60594;50.204;8.844;2023-05-14T02:32:34;11.57;;;6.57;;
72569;SDS011;60594;50.204;8.844;2023-05-14T02:35:00;10.10;;;6.72;;
72569;SDS011;60594;50.204;8.844;2023-05-14T02:37:28;12.35;;;7.15;;
72569;SDS011;60594;50.204;8.844;2023-05-14T02:39:55;10.23;;;6.60;;
72569;SDS011;60594;50.204;8.844;2023-05-14T02:42:22;10.75;;;7.22;;
72569;SDS011;60594;50.204;8.844;2023-05-14T02:44:49;11.15;;;7.25;;
72569;SDS011;60594;50.204;8.844;2023-05-14T02:47:17;10.80;;;6.43;;
72569;SDS011;60594;50.204;8.844;2023-05-14T02:49:46;12.05;;;6.90;;
72569;SDS011;60594;50.204;8.844;2023-05-14T02:52:12;10.60;;;6.40;;
72569;SDS011;60594;50.204;8.844;2023-05-14T02:54:41;10.65;;;6.60;;
72569;SDS011;60594;50.204;8.844;2023-05-14T02:57:08;13.68;;;7.40;;
72569;SDS011;60594;50.204;8.844;2023-05-14T02:59:36;12.23;;;7.28;;
72569;SDS011;60594;50.204;8.844;2023-05-14T03:02:22;12.10;;;7.45;;
72569;SDS011;60594;50.204;8.844;2023-05-14T03:04:51;13.02;;;7.40;;
72569;SDS011;60594;50.204;8.844;2023-05-14T03:07:18;13.50;;;7.60;;
72569;SDS011;60594;50.204;8.844;2023-05-14T03:09:44;11.52;;;7.60;;
72569;SDS011;60594;50.204;8.844;2023-05-14T03:12:11;13.98;;;9.05;;
72569;SDS011;60594;50.204;8.844;2023-05-14T03:14:39;12.30;;;8.63;;
72569;SDS011;60594;50.204;8.844;2023-05-14T03:17:06;11.02;;;6.75;;
72569;SDS011;60594;50.204;8.844;2023-05-14T03:19:33;12.00;;;6.90;;
72569;SDS011;60594;50.204;8.844;2023-05-14T03:21:59;10.38;;;6.53;;
72569;SDS011;60594;50.204;8.844;2023-05-14T03:24:26;10.88;;;6.70;;
72569;SDS011;60594;50.204;8.844;2023-05-14T03:26:55;11.45;;;6.80;;
72569;SDS011;60594;50.204;8.844;2023-05-14T03:29:23;12.32;;;7.72;;
72569;SDS011;60594;50.204;8.844;2023-05-14T03:31:51;10.57;;;6.75;;
72569;SDS011;60594;50.204;8.844;2023-05-14T03:34:19;9.02;;;6.25;;
72569;SDS011;60594;50.204;8.844;2023-05-14T03:36:45;9.98;;;6.32;;
72569;SDS011;60594;50.204;8.844;2023-05-14T03:39:13;12.90;;;6.75;;
72569;SDS011;60594;50.204;8.844;2023-05-14T03:41:45;10.63;;;6.90;;
72569;SDS011;60594;50.204;8.844;2023-05-14T03:44:12;9.85;;;6.43;;
72569;SDS011;60594;50.204;8.844;2023-05-14T03:46:39;9.88;;;6.18;;
72569;SDS011;60594;50.204;8.844;2023-05-14T03:49:07;9.82;;;6.25;;
72569;SDS011;60594;50.204;8.844;2023-05-14T03:51:34;11.32;;;6.75;;
72569;SDS011;60594;50.204;8.844;2023-05-14T03:54:04;10.63;;;6.25;;
72569;SDS011;60594;50.204;8.844;2023-05-14T03:56:31;10.30;;;6.72;;
72569;SDS011;60594;50.204;8.844;2023-05-14T03:58:58;11.68;;;6.72;;
72569;SDS011;60594;50.204;8.844;2023-05-14T04:01:24;11.20;;;7.05;;
72569;SDS011;60594;50.204;8.844;2023-05-14T04:03:51;10.50;;;7.18;;
72569;SDS011;60594;50.204;8.844;2023-05-14T04:06:18;11.27;;;6.30;;
72569;SDS011;60594;50.204;8.844;2023-05-14T04:08:46;12.70;;;7.05;;
72569;SDS011;60594;50.204;8.844;2023-05-14T04:11:12;11.10;;;6.53;;
72569;SDS011;60594;50.204;8.844;2023-05-14T04:13:39;10.10;;;6.30;;
72569;SDS011;60594;50.204;8.844;2023-05-14T04:16:05;10.48;;;6.40;;
72569;SDS011;60594;50.204;8.844;2023-05-14T04:18:32;10.75;;;6.82;;
72569;SDS011;60594;50.204;8.844;2023-05-14T04:21:02;9.40;;;6.43;;
72569;SDS011;60594;50.204;8.844;2023-05-14T04:23:33;11.90;;;7.25;;
72569;SDS011;60594;50.204;8.844;2023-05-14T04:25:59;10.32;;;7.00;;
72569;SDS011;60594;50.204;8.844;2023-05-14T04:28:27;11.85;;;7.57;;
72569;SDS011;60594;50.204;8.844;2023-05-14T04:30:53;12.95;;;7.63;;
72569;SDS011;60594;50.204;8.844;2023-05-14T04:33:21;11.57;;;7.25;;
72569;SDS011;60594;50.204;8.844;2023-05-14T04:35:48;12.20;;;7.05;;
72569;SDS011;60594;50.204;8.844;2023-05-14T04:38:15;11.75;;;7.55;;
72569;SDS011;60594;50.204;8.844;2023-05-14T04:40:42;10.63;;;6.55;;
72569;SDS011;60594;50.204;8.844;2023-05-14T04:43:08;9.52;;;6.60;;
72569;SDS011;60594;50.204;8.844;2023-05-14T04:45:36;10.13;;;6.35;;
72569;SDS011;60594;50.204;8.844;2023-05-14T04:48:03;11.65;;;6.78;;
72569;SDS011;60594;50.204;8.844;2023-05-14T04:50:32;9.77;;;6.63;;
72569;SDS011;60594;50.204;8.844;2023-05-14T04:53:00;11.30;;;7.53;;
72569;SDS011;60594;50.204;8.844;2023-05-14T04:55:26;10.25;;;6.47;;
72569;SDS011;60594;50.204;8.844;2023-05-14T04:57:55;10.93;;;6.65;;
72569;SDS011;60594;50.204;8.844;2023-05-14T05:00:21;11.15;;;6.70;;
72569;SDS011;60594;50.204;8.844;2023-05-14T05:02:48;11.60;;;7.05;;
72569;SDS011;60594;50.204;8.844;2023-05-14T05:05:16;9.73;;;6.75;;
72569;SDS011;60594;50.204;8.844;2023-05-14T05:07:43;10.73;;;6.60;;
72569;SDS011;60594;50.204;8.844;2023-05-14T05:10:10;10.25;;;6.70;;
72569;SDS011;60594;50.204;8.844;2023-05-14T05:12:38;10.95;;;7.45;;
72569;SDS011;60594;50.204;8.844;2023-05-14T05:15:05;10.90;;;6.97;;
72569;SDS011;60594;50.204;8.844;2023-05-14T05:20:03;10.77;;;6.50;;
72569;SDS011;60594;50.204;8.844;2023-05-14T05:22:34;11.90;;;6.75;;
72569;SDS011;60594;50.204;8.844;2023-05-14T05:25:01;11.07;;;7.10;;
72569;SDS011;60594;50.204;8.844;2023-05-14T05:27:33;11.57;;;6.82;;
72569;SDS011;60594;50.204;8.844;2023-05-14T05:30:00;10.32;;;7.32;;
72569;SDS011;60594;50.204;8.844;2023-05-14T05:32:27;10.85;;;6.88;;
72569;SDS011;60594;50.204;8.844;2023-05-14T05:34:54;10.70;;;7.07;;
72569;SDS011;60594;50.204;8.844;2023-05-14T05:37:21;11.82;;;7.18;;
72569;SDS011;60594;50.204;8.844;2023-05-14T05:39:52;9.48;;;6.40;;
72569;SDS011;60594;50.204;8.844;2023-05-14T05:42:19;10.75;;;6.15;;
72569;SDS011;60594;50.204;8.844;2023-05-14T05:44:46;11.75;;;6.47;;
72569;SDS011;60594;50.204;8.844;2023-05-14T05:47:13;11.95;;;6.65;;
72569;SDS011;60594;50.204;8.844;2023-05-14T05:49:41;10.30;;;6.47;;
72569;SDS011;60594;50.204;8.844;2023-05-14T05:52:09;13.43;;;6.65;;
72569;SDS011;60594;50.204;8.844;2023-05-14T05:54:38;10.68;;;6.20;;
72569;SDS011;60594;50.204;8.844;2023-05-14T05:57:05;9.82;;;6.40;;
72569;SDS011;60594;50.204;8.844;2023-05-14T05:59:31;11.18;;;6.30;;
72569;SDS011;60594;50.204;8.844;2023-05-14T06:01:59;10.00;;;6.13;;
72569;SDS011;60594;50.204;8.844;2023-05-14T06:04:27;9.52;;;6.75;;
72569;SDS011;60594;50.204;8.844;2023-05-14T06:06:55;9.82;;;6.45;;
72569;SDS011;60594;50.204;8.844;2023-05-14T06:09:22;9.60;;;6.28;;
72569;SDS011;60594;50.204;8.844;2023-05-14T06:11:53;10.45;;;6.05;;
72569;SDS011;60594;50.204;8.844;2023-05-14T06:14:19;11.38;;;7.00;;
72569;SDS011;60594;50.204;8.844;2023-05-14T06:16:46;11.02;;;7.30;;
72569;SDS011;60594;50.204;8.844;2023-05-14T06:19:12;8.05;;;5.63;;
72569;SDS011;60594;50.204;8.844;2023-05-14T06:21:39;9.88;;;6.25;;
72569;SDS011;60594;50.204;8.844;2023-05-14T06:24:06;10.95;;;6.75;;
72569;SDS011;60594;50.204;8.844;2023-05-14T06:26:33;9.35;;;6.10;;
72569;SDS011;60594;50.204;8.844;2023-05-14T06:29:00;10.45;;;6.40;;
72569;SDS011;60594;50.204;8.844;2023-05-14T06:31:28;8.55;;;5.63;;
72569;SDS011;60594;50.204;8.844;2023-05-14T06:33:55;10.70;;;6.47;;
72569;SDS011;60594;50.204;8.844;2023-05-14T06:36:23;9.02;;;5.88;;
72569;SDS011;60594;50.204;8.844;2023-05-14T06:38:49;8.77;;;6.03;;
72569;SDS011;60594;50.204;8.844;2023-05-14T06:41:16;8.60;;;5.60;;
72569;SDS011;60594;50.204;8.844;2023-05-14T06:43:42;9.20;;;5.60;;
72569;SDS011;60594;50.204;8.844;2023-05-14T06:46:10;9.48;;;5.90;;
72569;SDS011;60594;50.204;8.844;2023-05-14T06:48:37;9.45;;;5.72;;
72569;SDS011;60594;50.204;8.844;2023-05-14T06:51:07;8.70;;;5.50;;
72569;SDS011;60594;50.204;8.844;2023-05-14T06:53:33;8.95;;;5.50;;
72569;SDS011;60594;50.204;8.844;2023-05-14T06:56:00;9.95;;;5.68;;
72569;SDS011;60594;50.204;8.844;2023-05-14T06:58:27;8.63;;;5.25;;
72569;SDS011;60594;50.204;8.844;2023-05-14T07:00:54;9.75;;;5.90;;
72569;SDS011;60594;50.204;8.844;2023-05-14T07:03:21;8.43;;;5.72;;
72569;SDS011;60594;50.204;8.844;2023-05-14T07:05:51;9.48;;;5.60;;
72569;SDS011;60594;50.204;8.844;2023-05-14T07:08:17;8.30;;;5.50;;
72569;SDS011;60594;50.204;8.844;2023-05-14T07:10:44;8.18;;;5.30;;
72569;SDS011;60594;50.204;8.844;2023-05-14T07:13:10;8.70;;;5.47;;
72569;SDS011;60594;50.204;8.844;2023-05-14T07:15:37;7.32;;;5.25;;
72569;SDS011;60594;50.204;8.844;2023-05-14T07:18:06;7.43;;;4.95;;
72569;SDS011;60594;50.204;8.844;2023-05-14T07:20:33;11.27;;;5.10;;
72569;SDS011;60594;50.204;8.844;2023-05-14T07:23:00;7.15;;;5.60;;
72569;SDS011;60594;50.204;8.844;2023-05-14T07:25:27;7.00;;;4.60;;
72569;SDS011;60594;50.204;8.844;2023-05-14T07:27:53;7.82;;;4.65;;
72569;SDS011;60594;50.204;8.844;2023-05-14T07:30:21;7.72;;;4.30;;
72569;SDS011;60594;50.204;8.844;2023-05-14T07:32:50;7.20;;;4.20;;
72569;SDS011;60594;50.204;8.844;2023-05-14T07:35:18;6.38;;;3.80;;
72569;SDS011;60594;50.204;8.844;2023-05-14T07:37:44;6.43;;;4.38;;
72569;SDS011;60594;50.204;8.844;2023-05-14T07:40:11;9.80;;;4.43;;
72569;SDS011;60594;50.204;8.844;2023-05-14T07:42:38;6.55;;;4.10;;
72569;SDS011;60594;50.204;8.844;2023-05-14T07:45:05;9.70;;;4.90;;
72569;SDS011;60594;50.204;8.844;2023-05-14T07:47:32;6.07;;;3.42;;
72569;SDS011;60594;50.204;8.844;2023-05-14T07:50:02;5.18;;;3.13;;
72569;SDS011;60594;50.204;8.844;2023-05-14T07:52:32;7.15;;;3.42;;
72569;SDS011;60594;50.204;8.844;2023-05-14T07:55:01;5.68;;;3.25;;
72569;SDS011;60594;50.204;8.844;2023-05-14T07:57:29;5.28;;;2.97;;
72569;SDS011;60594;50.204;8.844;2023-05-14T07:59:57;4.93;;;2.80;;
72569;SDS011;60594;50.204;8.844;2023-05-14T08:02:23;6.13;;;2.95;;
72569;SDS011;60594;50.204;8.844;2023-05-14T08:04:50;5.78;;;3.42;;
72569;SDS011;60594;50.204;8.844;2023-05-14T08:07:18;4.97;;;2.83;;
72569;SDS011;60594;50.204;8.844;2023-05-14T08:09:46;5.00;;;2.70;;
72569;SDS011;60594;50.204;8.844;2023-05-14T08:12:12;5.80;;;3.13;;
72569;SDS011;60594;50.204;8.844;2023-05-14T08:14:39;5.38;;;2.92;;
72569;SDS011;60594;50.204;8.844;2023-05-14T08:17:08;4.47;;;2.45;;
72569;SDS011;60594;50.204;8.844;2023-05-14T08:19:36;5.20;;;2.88;;
72569;SDS011;60594;50.204;8.844;2023-05-14T08:22:02;4.65;;;2.45;;
72569;SDS011;60594;50.204;8.844;2023-05-14T08:24:29;5.93;;;3.03;;
72569;SDS011;60594;50.204;8.844;2023-05-14T08:26:56;4.18;;;2.05;;
72569;SDS011;60594;50.204;8.844;2023-05-14T08:29:24;3.90;;;2.20;;
72569;SDS011;60594;50.204;8.844;2023-05-14T08:31:51;3.65;;;2.38;;
72569;SDS011;60594;50.204;8.844;2023-05-14T08:34:18;4.22;;;2.30;;
72569;SDS011;60594;50.204;8.844;2023-05-14T08:36:48;4.53;;;2.15;;
72569;SDS011;60594;50.204;8.844;2023-05-14T08:39:14;6.15;;;2.67;;
72569;SDS011;60594;50.204;8.844;2023-05-14T08:41:42;4.55;;;2.38;;
72569;SDS011;60594;50.204;8.844;2023-05-14T08:44:19;3.55;;;1.95;;
72569;SDS011;60594;50.204;8.844;2023-05-14T08:46:57;3.78;;;1.75;;
72569;SDS011;60594;50.204;8.844;2023-05-14T08:49:34;5.47;;;2.45;;
72569;SDS011;60594;50.204;8.844;2023-05-14T08:52:06;3.95;;;2.10;;
72569;SDS011;60594;50.204;8.844;2023-05-14T08:54:34;4.53;;;2.20;;
72569;SDS011;60594;50.204;8.844;2023-05-14T08:57:02;4.65;;;2.67;;
72569;SDS011;60594;50.204;8.844;2023-05-14T08:59:32;4.35;;;2.20;;
72569;SDS011;60594;50.204;8.844;2023-05-14T09:02:00;4.57;;;2.50;;
72569;SDS011;60594;50.204;8.844;2023-05-14T09:04:53;4.60;;;2.30;;
72569;SDS011;60594;50.204;8.844;2023-05-14T09:07:22;4.60;;;2.20;;
72569;SDS011;60594;50.204;8.844;2023-05-14T09:09:51;4.22;;;2.25;;
72569;SDS011;60594;50.204;8.844;2023-05-14T09:12:18;3.80;;;2.30;;
72569;SDS011;60594;50.204;8.844;2023-05-14T09:14:48;4.10;;;2.25;;
72569;SDS011;60594;50.204;8.844;2023-05-14T09:17:16;5.78;;;2.22;;
72569;SDS011;60594;50.204;8.844;2023-05-14T09:19:44;4.07;;;2.25;;
72569;SDS011;60594;50.204;8.844;2023-05-14T09:22:15;4.25;;;2.60;;
72569;SDS011;60594;50.204;8.844;2023-05-14T09:25:00;4.65;;;2.33;;
72569;SDS011;60594;50.204;8.844;2023-05-14T09:27:30;5.97;;;2.85;;
72569;SDS011;60594;50.204;8.844;2023-05-14T09:30:09;3.92;;;2.40;;
72569;SDS011;60594;50.204;8.844;2023-05-14T09:32:43;4.28;;;2.38;;
72569;SDS011;60594;50.204;8.844;2023-05-14T09:35:18;4.40;;;2.35;;
72569;SDS011;60594;50.204;8.844;2023-05-14T09:37:47;4.07;;;2.25;;
72569;SDS011;60594;50.204;8.844;2023-05-14T09:40:16;5.28;;;2.42;;
72569;SDS011;60594;50.204;8.844;2023-05-14T09:42:44;4.30;;;2.22;;
72569;SDS011;60594;50.204;8.844;2023-05-14T09:45:11;4.32;;;2.20;;
72569;SDS011;60594;50.204;8.844;2023-05-14T09:47:39;4.38;;;2.22;;
72569;SDS011;60594;50.204;8.844;2023-05-14T09:50:07;4.35;;;2.08;;
72569;SDS011;60594;50.204;8.844;2023-05-14T09:52:35;4.15;;;2.05;;
72569;SDS011;60594;50.204;8.844;2023-05-14T09:55:05;3.55;;;1.92;;
72569;SDS011;60594;50.204;8.844;2023-05-14T10:00:01;4.18;;;2.78;;
72569;SDS011;60594;50.204;8.844;2023-05-14T10:02:34;5.65;;;2.15;;
72569;SDS011;60594;50.204;8.844;2023-05-14T10:05:03;3.90;;;2.60;;
72569;SDS011;60594;50.204;8.844;2023-05-14T10:07:45;3.80;;;2.03;;
72569;SDS011;60594;50.204;8.844;2023-05-14T10:10:18;4.10;;;2.42;;
72569;SDS011;60594;50.204;8.844;2023-05-14T10:12:50;4.63;;;2.20;;
72569;SDS011;60594;50.204;8.844;2023-05-14T10:15:19;4.07;;;2.05;;
72569;SDS011;60594;50.204;8.844;2023-05-14T10:17:54;3.92;;;2.47;;
72569;SDS011;60594;50.204;8.844;2023-05-14T10:20:24;4.03;;;2.22;;
72569;SDS011;60594;50.204;8.844;2023-05-14T10:22:52;4.15;;;2.00;;
72569;SDS011;60594;50.204;8.844;2023-05-14T10:25:19;4.45;;;2.13;;
72569;SDS011;60594;50.204;8.844;2023-05-14T10:27:47;3.50;;;2.10;;
72569;SDS011;60594;50.204;8.844;2023-05-14T10:30:14;4.07;;;2.13;;
72569;SDS011;60594;50.204;8.844;2023-05-14T10:32:41;4.25;;;2.30;;
72569;SDS011;60594;50.204;8.844;2023-05-14T10:35:15;4.00;;;2.28;;
72569;SDS011;60594;50.204;8.844;2023-05-14T10:37:45;4.70;;;2.63;;
72569;SDS011;60594;50.204;8.844;2023-05-14T10:40:13;4.32;;;2.40;;
72569;SDS011;60594;50.204;8.844;2023-05-14T10:42:39;4.05;;;2.15;;
72569;SDS011;60594;50.204;8.844;2023-05-14T10:45:10;3.92;;;2.17;;
72569;SDS011;60594;50.204;8.844;2023-05-14T10:47:38;3.47;;;2.20;;
72569;SDS011;60594;50.204;8.844;2023-05-14T10:50:07;6.15;;;2.50;;
72569;SDS011;60594;50.204;8.844;2023-05-14T10:52:36;3.80;;;1.98;;
72569;SDS011;60594;50.204;8.844;2023-05-14T10:55:03;3.50;;;1.90;;
72569;SDS011;60594;50.204;8.844;2023-05-14T10:57:37;3.42;;;2.00;;
72569;SDS011;60594;50.204;8.844;2023-05-14T11:00:05;4.22;;;2.20;;
72569;SDS011;60594;50.204;8.844;2023-05-14T11:02:35;3.90;;;1.77;;
72569;SDS011;60594;50.204;8.844;2023-05-14T11:05:04;3.58;;;1.90;;
72569;SDS011;60594;50.204;8.844;2023-05-14T11:07:35;3.17;;;1.70;;
72569;SDS011;60594;50.204;8.844;2023-05-14T11:10:04;4.03;;;2.60;;
72569;SDS011;60594;50.204;8.844;2023-05-14T11:12:34;3.83;;;1.90;;
72569;SDS011;60594;50.204;8.844;2023-05-14T11:15:04;4.88;;;2.10;;
72569;SDS011;60594;50.204;8.844;2023-05-14T11:17:33;3.90;;;2.03;;
72569;SDS011;60594;50.204;8.844;2023-05-14T11:22:28;3.70;;;1.58;;
72569;SDS011;60594;50.204;8.844;2023-05-14T11:24:55;3.63;;;2.38;;
72569;SDS011;60594;50.204;8.844;2023-05-14T11:27:23;3.60;;;2.03;;
72569;SDS011;60594;50.204;8.844;2023-05-14T11:29:50;3.33;;;1.80;;
72569;SDS011;60594;50.204;8.844;2023-05-14T11:32:17;3.70;;;1.50;;
72569;SDS011;60594;50.204;8.844;2023-05-14T11:34:46;9.05;;;2.50;;
72569;SDS011;60594;50.204;8.844;2023-05-14T11:37:13;4.20;;;2.25;;
72569;SDS011;60594;50.204;8.844;2023-05-14T11:39:45;4.00;;;1.92;;
72569;SDS011;60594;50.204;8.844;2023-05-14T11:42:14;4.32;;;2.00;;
72569;SDS011;60594;50.204;8.844;2023-05-14T11:44:45;4.38;;;2.00;;
72569;SDS011;60594;50.204;8.844;2023-05-14T11:47:12;3.58;;;1.90;;
72569;SDS011;60594;50.204;8.844;2023-05-14T11:49:42;3.90;;;2.20;;
72569;SDS011;60594;50.204;8.844;2023-05-14T11:52:10;3.63;;;1.95;;
72569;SDS011;60594;50.204;8.844;2023-05-14T11:54:40;3.40;;;1.98;;
72569;SDS011;60594;50.204;8.844;2023-05-14T11:57:12;4.22;;;1.90;;
72569;SDS011;60594;50.204;8.844;2023-05-14T11:59:42;3.92;;;2.00;;
72569;SDS011;60594;50.204;8.844;2023-05-14T12:02:10;5.35;;;2.00;;
72569;SDS011;60594;50.204;8.844;2023-05-14T12:04:37;4.07;;;2.20;;
72569;SDS011;60594;50.204;8.844;2023-05-14T12:09:37;4.55;;;2.15;;
72569;SDS011;60594;50.204;8.844;2023-05-14T12:12:09;3.90;;;1.90;;
72569;SDS011;60594;50.204;8.844;2023-05-14T12:14:39;4.53;;;2.53;;
72569;SDS011;60594;50.204;8.844;2023-05-14T12:17:11;4.50;;;2.00;;
72569;SDS011;60594;50.204;8.844;2023-05-14T12:19:40;3.70;;;2.00;;
72569;SDS011;60594;50.204;8.844;2023-05-14T12:22:12;3.90;;;2.30;;
72569;SDS011;60594;50.204;8.844;2023-05-14T12:24:41;3.90;;;2.20;;
72569;SDS011;60594;50.204;8.844;2023-05-14T12:27:08;3.95;;;1.92;;
72569;SDS011;60594;50.204;8.844;2023-05-14T12:29:36;3.90;;;2.40;;
72569;SDS011;60594;50.204;8.844;2023-05-14T12:32:07;4.10;;;2.10;;
72569;SDS011;60594;50.204;8.844;2023-05-14T12:34:36;3.50;;;1.75;;
72569;SDS011;60594;50.204;8.844;2023-05-14T12:37:04;3.50;;;1.90;;
72569;SDS011;60594;50.204;8.844;2023-05-14T12:39:32;4.00;;;2.10;;
72569;SDS011;60594;50.204;8.844;2023-05-14T12:42:00;4.20;;;2.30;;
72569;SDS011;60594;50.204;8.844;2023-05-14T12:44:27;4.03;;;1.92;;
72569;SDS011;60594;50.204;8.844;2023-05-14T12:46:55;3.50;;;2.00;;
72569;SDS011;60594;50.204;8.844;2023-05-14T12:49:23;4.03;;;2.55;;
72569;SDS011;60594;50.204;8.844;2023-05-14T12:51:50;5.20;;;2.10;;
72569;SDS011;60594;50.204;8.844;2023-05-14T12:54:17;3.40;;;1.77;;
72569;SDS011;60594;50.204;8.844;2023-05-14T12:56:48;3.47;;;2.00;;
72569;SDS011;60594;50.204;8.844;2023-05-14T12:59:16;4.00;;;1.90;;
72569;SDS011;60594;50.204;8.844;2023-05-14T13:06:41;3.28;;;1.80;;
72569;SDS011;60594;50.204;8.844;2023-05-14T13:09:08;3.60;;;1.83;;
72569;SDS011;60594;50.204;8.844;2023-05-14T13:11:35;3.97;;;1.73;;
72569;SDS011;60594;50.204;8.844;2023-05-14T13:14:01;3.30;;;1.70;;
72569;SDS011;60594;50.204;8.844;2023-05-14T13:16:29;3.97;;;1.90;;
72569;SDS011;60594;50.204;8.844;2023-05-14T13:18:57;3.75;;;1.90;;
72569;SDS011;60594;50.204;8.844;2023-05-14T13:21:23;3.38;;;1.63;;
72569;SDS011;60594;50.204;8.844;2023-05-14T13:23:51;3.85;;;2.00;;
72569;SDS011;60594;50.204;8.844;2023-05-14T13:26:17;3.40;;;1.63;;
72569;SDS011;60594;50.204;8.844;2023-05-14T13:28:44;3.50;;;1.70;;
72569;SDS011;60594;50.204;8.844;2023-05-14T13:31:11;4.95;;;1.77;;
72569;SDS011;60594;50.204;8.844;2023-05-14T13:33:42;4.93;;;1.90;;
72569;SDS011;60594;50.204;8.844;2023-05-14T13:36:12;3.83;;;1.90;;
72569;SDS011;60594;50.204;8.844;2023-05-14T13:38:40;3.47;;;1.77;;
72569;SDS011;60594;50.204;8.844;2023-05-14T13:41:06;3.97;;;2.00;;
72569;SDS011;60594;50.204;8.844;2023-05-14T13:43:34;3.50;;;1.67;;
72569;SDS011;60594;50.204;8.844;2023-05-14T13:46:01;3.83;;;1.90;;
72569;SDS011;60594;50.204;8.844;2023-05-14T13:48:30;3.45;;;1.70;;
72569;SDS011;60594;50.204;8.844;2023-05-14T13:50:57;3.88;;;2.10;;
72569;SDS011;60594;50.204;8.844;2023-05-14T13:53:23;4.63;;;1.98;;
72569;SDS011;60594;50.204;8.844;2023-05-14T13:55:51;3.47;;;1.90;;
72569;SDS011;60594;50.204;8.844;2023-05-14T13:58:26;3.75;;;1.88;;
72569;SDS011;60594;50.204;8.844;2023-05-14T14:00:53;5.45;;;2.00;;
72569;SDS011;60594;50.204;8.844;2023-05-14T14:03:20;4.78;;;1.88;;
72569;SDS011;60594;50.204;8.844;2023-05-14T14:05:49;3.65;;;1.88;;
72569;SDS011;60594;50.204;8.844;2023-05-14T14:08:18;3.72;;;1.65;;
72569;SDS011;60594;50.204;8.844;2023-05-14T14:10:49;3.58;;;1.80;;
72569;SDS011;60594;50.204;8.844;2023-05-14T14:13:16;3.67;;;2.15;;
72569;SDS011;60594;50.204;8.844;2023-05-14T14:15:43;4.47;;;1.95;;
72569;SDS011;60594;50.204;8.844;2023-05-14T14:18:10;3.65;;;1.80;;
72569;SDS011;60594;50.204;8.844;2023-05-14T14:20:37;3.30;;;1.80;;
72569;SDS011;60594;50.204;8.844;2023-05-14T14:23:08;3.88;;;1.90;;
72569;SDS011;60594;50.204;8.844;2023-05-14T14:25:35;4.00;;;1.77;;
72569;SDS011;60594;50.204;8.844;2023-05-14T14:28:02;3.50;;;1.67;;
72569;SDS011;60594;50.204;8.844;2023-05-14T14:30:29;3.53;;;1.80;;
72569;SDS011;60594;50.204;8.844;2023-05-14T14:32:58;3.75;;;1.58;;
72569;SDS011;60594;50.204;8.844;2023-05-14T14:35:27;3.38;;;1.73;;
72569;SDS011;60594;50.204;8.844;2023-05-14T14:37:58;3.65;;;1.33;;
72569;SDS011;60594;50.204;8.844;2023-05-14T14:40:25;3.35;;;1.70;;
72569;SDS011;60594;50.204;8.844;2023-05-14T14:42:55;3.25;;;1.70;;
72569;SDS011;60594;50.204;8.844;2023-05-14T14:45:22;3.95;;;1.80;;
72569;SDS011;60594;50.204;8.844;2023-05-14T14:47:49;3.35;;;1.75;;
72569;SDS011;60594;50.204;8.844;2023-05-14T14:50:17;3.53;;;1.80;;
72569;SDS011;60594;50.204;8.844;2023-05-14T14:52:46;3.40;;;1.48;;
72569;SDS011;60594;50.204;8.844;2023-05-14T14:55:13;3.03;;;1.50;;
72569;SDS011;60594;50.204;8.844;2023-05-14T14:57:40;3.45;;;1.75;;
72569;SDS011;60594;50.204;8.844;2023-05-14T15:00:06;3.40;;;1.80;;
72569;SDS011;60594;50.204;8.844;2023-05-14T15:02:37;3.50;;;1.60;;
72569;SDS011;60594;50.204;8.844;2023-05-14T15:05:07;3.42;;;1.80;;
72569;SDS011;60594;50.204;8.844;2023-05-14T15:07:34;3.70;;;1.80;;
72569;SDS011;60594;50.204;8.844;2023-05-14T15:10:01;4.22;;;2.40;;
72569;SDS011;60594;50.204;8.844;2023-05-14T15:12:28;3.35;;;1.60;;
72569;SDS011;60594;50.204;8.844;2023-05-14T15:14:55;2.92;;;1.48;;